Time;durP1;ratioP1;P1;durP2;ratioP2;P2;SDS_P1;SDS_P2;PMS_P1;PMS_P2;Temp;Humidity;BMP_temperature;BMP_pressure;BME280_temperature;BME280_humidity;BME280_pressure;Samples;Min_cycle;Max_cycle;Signal;HPM_P1;HPM_P2
2021/08/29 00:02:06;;;;;;;5.80;5.30;;;18.10;99.90;;;;;;5072598;28;20545;-63
2021/08/29 00:04:34;;;;;;;6.93;6.37;;;18.10;99.90;;;;;;5072331;28;20461;-63
2021/08/29 00:07:01;;;;;;;7.90;6.80;;;18.10;99.90;;;;;;5072327;28;20470;-63
2021/08/29 00:09:28;;;;;;;8.37;7.67;;;18.10;99.90;;;;;;5072109;28;20550;-62
2021/08/29 00:11:55;;;;;;;7.33;6.73;;;18.10;99.90;;;;;;5072231;28;20465;-62
2021/08/29 00:14:22;;;;;;;7.97;7.30;;;18.10;99.90;;;;;;5071958;28;20472;-62
2021/08/29 00:16:49;;;;;;;7.63;7.03;;;18.10;99.90;;;;;;5076754;28;20796;-62
2021/08/29 00:19:15;;;;;;;6.70;6.10;;;18.10;99.90;;;;;;5071891;28;20473;-62
2021/08/29 00:21:44;;;;;;;7.07;6.47;;;18.10;99.90;;;;;;5072315;28;20458;-62
2021/08/29 00:24:10;;;;;;;6.10;5.50;;;18.10;99.90;;;;;;5071994;28;20459;-62
2021/08/29 00:26:37;;;;;;;7.20;6.57;;;18.20;99.90;;;;;;5072285;28;20458;-63
2021/08/29 00:29:04;;;;;;;6.27;5.50;;;18.20;99.90;;;;;;5072329;28;20477;-63
2021/08/29 00:31:31;;;;;;;6.17;5.67;;;18.20;99.90;;;;;;5064453;28;20462;-63
2021/08/29 00:33:58;;;;;;;6.57;6.07;;;18.20;99.90;;;;;;5057422;28;20805;-62
2021/08/29 00:36:25;;;;;;;4.50;4.10;;;18.10;99.90;;;;;;5069916;28;20964;-62
2021/08/29 00:38:53;;;;;;;5.93;5.43;;;18.20;99.90;;;;;;5073683;28;20481;-61
2021/08/29 00:41:20;;;;;;;5.97;5.40;;;18.20;99.90;;;;;;5055656;28;20477;-61
2021/08/29 00:43:47;;;;;;;6.20;5.70;;;18.20;99.90;;;;;;5056308;28;20477;-61
2021/08/29 00:46:14;;;;;;;6.00;5.60;;;18.20;99.90;;;;;;5055420;28;20467;-60
2021/08/29 00:48:46;;;;;;;6.43;5.93;;;18.20;99.90;;;;;;5068646;28;20462;-62
2021/08/29 00:51:14;;;;;;;5.10;4.80;;;18.20;99.90;;;;;;5075441;28;20466;-61
2021/08/29 00:53:45;;;;;;;6.13;5.63;;;18.20;99.90;;;;;;5075994;28;20463;-62
2021/08/29 00:56:13;;;;;;;6.60;6.00;;;18.20;99.90;;;;;;5075281;28;20964;-61
2021/08/29 00:58:42;;;;;;;5.60;5.20;;;18.20;99.90;;;;;;5075770;28;20472;-62
2021/08/29 01:01:09;;;;;;;7.43;5.30;;;18.20;99.90;;;;;;5075747;28;20561;-62
2021/08/29 01:03:37;;;;;;;6.17;5.60;;;18.10;99.90;;;;;;5075306;28;20946;-62
2021/08/29 01:06:12;;;;;;;6.07;5.57;;;18.10;99.90;;;;;;5075515;28;20472;-62
2021/08/29 01:08:42;;;;;;;5.53;5.20;;;18.20;99.90;;;;;;5075248;28;20458;-62
2021/08/29 01:11:13;;;;;;;5.90;5.50;;;18.10;99.90;;;;;;5075531;28;20466;-62
2021/08/29 01:13:44;;;;;;;7.23;6.73;;;18.10;99.90;;;;;;5075269;28;20454;-62
2021/08/29 01:16:15;;;;;;;5.43;4.97;;;18.10;99.90;;;;;;5075326;28;20470;-62
2021/08/29 01:18:43;;;;;;;6.60;5.97;;;18.10;99.90;;;;;;5075303;28;21582;-61
2021/08/29 01:21:12;;;;;;;6.47;5.80;;;18.10;99.90;;;;;;5075214;28;20966;-62
2021/08/29 01:23:40;;;;;;;5.60;5.20;;;18.10;99.90;;;;;;5056864;28;20562;-61
2021/08/29 01:26:17;;;;;;;5.33;4.93;;;18.20;99.90;;;;;;5055465;28;20538;-61
2021/08/29 01:28:57;;;;;;;5.10;4.70;;;18.10;99.90;;;;;;5054854;28;21258;-61
2021/08/29 01:31:26;;;;;;;5.00;4.60;;;18.10;99.90;;;;;;5054838;28;20469;-61
2021/08/29 01:33:53;;;;;;;4.93;4.63;;;18.10;99.90;;;;;;5056515;28;20522;-62
2021/08/29 01:36:22;;;;;;;4.90;4.50;;;18.10;99.90;;;;;;5063537;28;20469;-62
2021/08/29 01:38:49;;;;;;;5.00;4.60;;;18.10;99.90;;;;;;5067467;28;20929;-62
2021/08/29 01:41:19;;;;;;;4.80;4.50;;;18.10;99.90;;;;;;5055126;28;20481;-63
2021/08/29 01:43:47;;;;;;;6.10;5.60;;;18.10;99.90;;;;;;5068081;28;20458;-62
2021/08/29 01:46:16;;;;;;;5.20;4.80;;;18.10;99.90;;;;;;5074650;28;20469;-62
2021/08/29 01:48:45;;;;;;;4.60;4.20;;;18.10;99.90;;;;;;5073216;28;20480;-62
2021/08/29 01:51:18;;;;;;;4.90;4.50;;;18.10;99.90;;;;;;5074874;28;20812;-62
2021/08/29 01:53:45;;;;;;;4.50;4.10;;;18.10;99.90;;;;;;5074290;28;20889;-62
2021/08/29 01:56:12;;;;;;;4.33;4.03;;;18.10;99.90;;;;;;5074842;28;20458;-62
2021/08/29 01:58:39;;;;;;;5.90;4.73;;;18.10;99.90;;;;;;5074333;28;20489;-62
2021/08/29 02:01:09;;;;;;;5.10;4.70;;;18.10;99.90;;;;;;5074720;28;20952;-62
2021/08/29 02:03:39;;;;;;;4.63;4.23;;;18.10;99.90;;;;;;5074179;28;20477;-62
2021/08/29 02:06:11;;;;;;;4.10;3.80;;;18.10;99.90;;;;;;5074542;28;20462;-62
2021/08/29 02:08:42;;;;;;;4.10;3.80;;;18.10;99.90;;;;;;5066628;28;20477;-62
2021/08/29 02:11:11;;;;;;;4.77;4.40;;;18.10;99.90;;;;;;5054510;28;20467;-61
2021/08/29 02:13:43;;;;;;;4.33;4.03;;;18.10;99.90;;;;;;5054037;28;20460;-61
2021/08/29 02:16:13;;;;;;;4.20;3.90;;;18.10;99.90;;;;;;5067174;28;20462;-62
2021/08/29 02:18:43;;;;;;;5.27;4.13;;;18.10;99.90;;;;;;5073844;28;20478;-62
2021/08/29 02:21:11;;;;;;;4.60;4.30;;;18.00;99.90;;;;;;5071931;28;20462;-62
2021/08/29 02:23:39;;;;;;;5.23;4.83;;;18.00;99.90;;;;;;5053849;28;20808;-62
2021/08/29 02:26:06;;;;;;;4.03;3.73;;;18.00;99.90;;;;;;5054243;28;20467;-63
2021/08/29 02:28:34;;;;;;;3.83;3.53;;;18.00;99.90;;;;;;5053551;28;20908;-63
2021/08/29 02:31:01;;;;;;;5.07;4.33;;;18.00;99.90;;;;;;5054092;28;20474;-63
2021/08/29 02:33:28;;;;;;;4.80;3.87;;;18.00;99.90;;;;;;5053685;28;20471;-62
2021/08/29 02:35:58;;;;;;;4.50;4.17;;;18.00;99.90;;;;;;5053937;28;20957;-62
2021/08/29 02:38:26;;;;;;;3.47;3.17;;;18.00;99.90;;;;;;5053509;28;20471;-62
2021/08/29 02:40:55;;;;;;;3.60;3.30;;;18.00;99.90;;;;;;5054020;28;20467;-61
2021/08/29 02:43:24;;;;;;;4.20;3.83;;;18.00;99.90;;;;;;5053842;28;20471;-62
2021/08/29 02:45:51;;;;;;;3.30;3.10;;;18.00;99.90;;;;;;5053468;28;20455;-62
2021/08/29 02:48:18;;;;;;;2.90;2.70;;;18.00;99.90;;;;;;5054991;28;20562;-62
2021/08/29 02:50:47;;;;;;;3.70;3.40;;;18.00;99.90;;;;;;5073143;28;20970;-61
2021/08/29 02:53:17;;;;;;;3.07;2.87;;;18.00;99.90;;;;;;5073736;28;20462;-62
2021/08/29 02:55:48;;;;;;;2.93;2.63;;;18.00;99.90;;;;;;5073015;28;20466;-62
2021/08/29 02:58:15;;;;;;;3.50;3.20;;;18.00;99.90;;;;;;5073477;28;20466;-62
2021/08/29 03:00:42;;;;;;;3.80;2.83;;;18.00;99.90;;;;;;5073049;28;20470;-62
2021/08/29 03:03:09;;;;;;;3.57;3.27;;;18.00;99.90;;;;;;5073389;28;20974;-62
2021/08/29 03:05:36;;;;;;;3.67;3.37;;;17.90;99.90;;;;;;5072884;28;20471;-62
2021/08/29 03:08:04;;;;;;;3.00;2.80;;;17.90;99.90;;;;;;5073291;28;20478;-62
2021/08/29 03:10:34;;;;;;;4.00;2.60;;;18.00;99.90;;;;;;5072862;28;20477;-61
2021/08/29 03:13:02;;;;;;;2.57;2.37;;;18.00;99.90;;;;;;5063376;28;20460;-62
2021/08/29 03:15:30;;;;;;;3.00;2.80;;;17.90;99.90;;;;;;5053014;28;20467;-62
2021/08/29 03:17:58;;;;;;;2.70;2.50;;;17.90;99.90;;;;;;5053152;28;20474;-62
2021/08/29 03:20:26;;;;;;;3.10;2.90;;;17.90;99.90;;;;;;5053017;28;20478;-63
2021/08/29 03:22:53;;;;;;;2.33;2.17;;;17.90;99.90;;;;;;5052779;28;20481;-60
2021/08/29 03:25:20;;;;;;;2.40;2.20;;;17.90;99.90;;;;;;5057762;28;20485;-64
2021/08/29 03:27:49;;;;;;;2.37;2.20;;;17.90;99.90;;;;;;5063517;28;20479;-63
2021/08/29 03:30:16;;;;;;;2.17;2.07;;;17.90;99.90;;;;;;5069492;28;20501;-63
2021/08/29 03:32:43;;;;;;;2.20;2.10;;;17.90;99.90;;;;;;5072364;28;20552;-63
2021/08/29 03:35:12;;;;;;;2.50;2.10;;;17.90;99.90;;;;;;5072970;28;20454;-63
2021/08/29 03:37:40;;;;;;;1.87;1.77;;;17.90;99.90;;;;;;5072254;28;20467;-63
2021/08/29 03:40:09;;;;;;;2.20;2.00;;;17.90;99.90;;;;;;5072608;28;20466;-63
2021/08/29 03:42:36;;;;;;;1.87;1.77;;;17.90;99.90;;;;;;5071654;28;20466;-63
2021/08/29 03:45:08;;;;;;;2.60;2.37;;;17.90;99.90;;;;;;5072646;28;20497;-60
2021/08/29 03:47:36;;;;;;;2.00;1.90;;;17.90;99.90;;;;;;5072115;28;20501;-63
2021/08/29 03:50:04;;;;;;;2.10;2.00;;;17.90;99.90;;;;;;5072553;28;20468;-62
2021/08/29 03:52:33;;;;;;;1.83;1.73;;;17.90;99.90;;;;;;5072163;28;20980;-62
2021/08/29 03:55:00;;;;;;;1.73;1.63;;;17.90;99.90;;;;;;5072468;28;20473;-62
2021/08/29 03:57:27;;;;;;;1.80;1.70;;;17.90;99.90;;;;;;5072570;28;20970;-62
2021/08/29 03:59:55;;;;;;;2.50;2.30;;;17.80;99.90;;;;;;5072008;28;20462;-61
2021/08/29 04:02:23;;;;;;;2.00;1.90;;;17.80;99.90;;;;;;5072280;28;20477;-62
2021/08/29 04:04:50;;;;;;;2.57;2.37;;;17.80;99.90;;;;;;5072169;28;20467;-62
2021/08/29 04:07:18;;;;;;;2.20;2.10;;;17.80;99.90;;;;;;5072073;28;20469;-62
2021/08/29 04:09:46;;;;;;;2.00;1.90;;;17.80;99.90;;;;;;5071885;28;21282;-62
2021/08/29 04:12:15;;;;;;;1.70;1.60;;;17.80;99.90;;;;;;5070691;28;20477;-62
2021/08/29 04:14:42;;;;;;;2.00;1.90;;;17.80;99.90;;;;;;5072077;28;20962;-62
2021/08/29 04:17:10;;;;;;;1.50;1.40;;;17.80;99.90;;;;;;5072377;28;20473;-62
2021/08/29 04:19:42;;;;;;;1.73;1.63;;;17.80;99.90;;;;;;5071944;28;20821;-62
2021/08/29 04:22:10;;;;;;;2.33;2.20;;;17.80;99.90;;;;;;5072503;28;20462;-62
2021/08/29 04:24:38;;;;;;;1.97;1.77;;;17.80;99.90;;;;;;5071931;28;20846;-62
2021/08/29 04:27:06;;;;;;;1.70;1.60;;;17.80;99.90;;;;;;5072440;28;20490;-63
2021/08/29 04:29:33;;;;;;;2.00;1.90;;;17.80;99.90;;;;;;5072317;28;20871;-62
2021/08/29 04:32:00;;;;;;;1.97;1.87;;;17.80;99.90;;;;;;5071998;28;21012;-62
2021/08/29 04:34:27;;;;;;;1.90;1.80;;;17.80;99.90;;;;;;5072137;28;20466;-63
2021/08/29 04:36:55;;;;;;;2.77;2.57;;;17.80;99.90;;;;;;5071755;28;20477;-62
2021/08/29 04:39:22;;;;;;;2.13;1.90;;;17.90;99.90;;;;;;5072168;28;20478;-62
2021/08/29 04:41:49;;;;;;;2.10;1.90;;;17.80;99.90;;;;;;5071863;28;20462;-62
2021/08/29 04:44:16;;;;;;;2.13;2.03;;;17.90;99.90;;;;;;5072079;28;20974;-62
2021/08/29 04:46:42;;;;;;;2.27;2.17;;;17.90;99.90;;;;;;5071502;28;20478;-62
2021/08/29 04:49:09;;;;;;;1.93;1.83;;;17.80;99.90;;;;;;5072039;28;20462;-62
2021/08/29 04:51:36;;;;;;;2.87;2.50;;;17.90;99.90;;;;;;5072086;28;20489;-62
2021/08/29 04:54:05;;;;;;;3.10;2.90;;;17.90;99.90;;;;;;5071834;28;20454;-62
2021/08/29 04:56:32;;;;;;;3.27;3.07;;;17.90;99.90;;;;;;5072198;28;20470;-62
2021/08/29 04:59:02;;;;;;;2.90;2.70;;;17.90;99.90;;;;;;5071472;28;20466;-63
2021/08/29 05:01:33;;;;;;;2.83;2.63;;;17.90;99.90;;;;;;5063693;28;20464;-63
2021/08/29 05:04:04;;;;;;;4.80;3.27;;;17.90;99.90;;;;;;5051520;28;20462;-63
2021/08/29 05:06:34;;;;;;;2.83;2.63;;;17.90;99.90;;;;;;5051908;28;20986;-61
2021/08/29 05:09:03;;;;;;;3.33;3.10;;;17.90;99.90;;;;;;5051201;28;20463;-62
2021/08/29 05:11:32;;;;;;;2.80;2.60;;;17.90;99.90;;;;;;5051774;28;20525;-61
2021/08/29 05:13:59;;;;;;;6.03;5.57;;;17.90;99.90;;;;;;5051449;28;20989;-62
2021/08/29 05:16:27;;;;;;;3.83;3.53;;;17.90;99.90;;;;;;5051693;28;20543;-61
2021/08/29 05:18:53;;;;;;;4.10;3.80;;;17.90;99.90;;;;;;5051269;28;20541;-61
2021/08/29 05:21:20;;;;;;;4.63;3.97;;;17.90;99.90;;;;;;5051800;28;20960;-61
2021/08/29 05:23:47;;;;;;;4.30;4.07;;;17.90;99.90;;;;;;5052658;28;20485;-62
2021/08/29 05:26:14;;;;;;;4.00;3.60;;;17.90;99.90;;;;;;5055486;28;20463;-62
2021/08/29 05:28:42;;;;;;;4.10;3.70;;;17.90;99.90;;;;;;5055318;28;20808;-63
2021/08/29 05:31:09;;;;;;;5.50;5.00;;;17.90;99.90;;;;;;5055090;28;20936;-62
2021/08/29 05:33:36;;;;;;;5.43;4.93;;;17.90;99.90;;;;;;5055131;28;20473;-61
2021/08/29 05:36:02;;;;;;;5.50;4.23;;;17.90;99.90;;;;;;5054629;28;20471;-63
2021/08/29 05:38:29;;;;;;;6.50;5.90;;;17.90;99.90;;;;;;5055049;28;20485;-62
2021/08/29 05:40:56;;;;;;;4.47;4.17;;;17.90;99.90;;;;;;5054805;28;20788;-62
2021/08/29 05:43:23;;;;;;;6.30;5.60;;;17.90;99.90;;;;;;5055120;28;20896;-62
2021/08/29 05:45:51;;;;;;;4.53;4.13;;;17.90;99.90;;;;;;5054291;28;20474;-62
2021/08/29 05:48:18;;;;;;;5.30;4.87;;;17.90;99.90;;;;;;5056218;28;20468;-62
2021/08/29 05:50:45;;;;;;;4.03;3.73;;;17.90;99.90;;;;;;5070170;28;20475;-62
2021/08/29 05:53:12;;;;;;;5.53;5.00;;;17.90;99.90;;;;;;5065581;28;20788;-62
2021/08/29 05:55:41;;;;;;;5.40;4.97;;;17.90;99.90;;;;;;5067609;28;20466;-61
2021/08/29 05:58:08;;;;;;;5.77;5.27;;;17.90;99.90;;;;;;5074060;28;20461;-62
2021/08/29 06:00:35;;;;;;;5.93;4.80;;;17.90;99.90;;;;;;5075186;28;20960;-62
2021/08/29 06:03:04;;;;;;;4.83;4.53;;;17.90;99.90;;;;;;5093678;28;20465;-62
2021/08/29 06:05:31;;;;;;;5.63;5.10;;;17.90;99.90;;;;;;5078103;28;20470;-62
2021/08/29 06:07:59;;;;;;;4.37;4.07;;;17.90;99.90;;;;;;5072098;28;20677;-62
2021/08/29 06:10:26;;;;;;;6.10;5.30;;;17.90;99.90;;;;;;5072850;28;20466;-62
2021/08/29 06:12:53;;;;;;;5.50;5.00;;;17.90;99.90;;;;;;5072213;28;20470;-62
2021/08/29 06:15:20;;;;;;;4.77;4.37;;;17.90;99.90;;;;;;5072731;28;20476;-62
2021/08/29 06:17:47;;;;;;;5.10;4.60;;;17.90;99.90;;;;;;5072863;28;20957;-61
2021/08/29 06:20:16;;;;;;;4.00;3.70;;;17.90;99.90;;;;;;5072131;28;20463;-63
2021/08/29 06:22:43;;;;;;;5.40;4.60;;;17.90;99.90;;;;;;5074153;28;20811;-63
2021/08/29 06:25:10;;;;;;;5.00;4.27;;;17.90;99.90;;;;;;5073432;28;20800;-63
2021/08/29 06:27:39;;;;;;;5.00;4.50;;;17.90;99.90;;;;;;5074305;28;20458;-63
2021/08/29 06:30:08;;;;;;;4.23;3.83;;;17.90;99.90;;;;;;5073210;28;20472;-63
2021/08/29 06:32:35;;;;;;;3.83;3.53;;;17.90;99.90;;;;;;5073834;28;20473;-63
2021/08/29 06:35:01;;;;;;;3.80;3.50;;;17.90;99.90;;;;;;5073104;28;20819;-63
2021/08/29 06:37:30;;;;;;;3.40;3.10;;;17.90;99.90;;;;;;5073949;28;21102;-63
2021/08/29 06:39:56;;;;;;;4.77;4.37;;;17.90;99.90;;;;;;5072772;28;20462;-63
2021/08/29 06:42:23;;;;;;;4.80;4.40;;;17.90;99.90;;;;;;5060603;28;20471;-63
2021/08/29 06:44:50;;;;;;;6.10;3.57;;;17.90;99.90;;;;;;5053894;28;20463;-61
2021/08/29 06:47:17;;;;;;;4.27;3.97;;;17.90;99.90;;;;;;5053511;28;20463;-61
2021/08/29 06:49:44;;;;;;;4.87;4.47;;;17.90;99.90;;;;;;5066361;28;20466;-60
2021/08/29 06:52:11;;;;;;;4.57;4.17;;;17.90;99.90;;;;;;5054594;28;20475;-61
2021/08/29 06:54:39;;;;;;;5.30;4.37;;;17.90;99.90;;;;;;5053640;28;20482;-60
2021/08/29 06:57:06;;;;;;;4.43;4.03;;;17.90;99.90;;;;;;5063373;28;20476;-60
2021/08/29 06:59:33;;;;;;;4.97;4.53;;;17.90;99.90;;;;;;5073696;28;20475;-60
2021/08/29 07:02:00;;;;;;;4.43;4.03;;;17.90;99.90;;;;;;5062423;28;20817;-61
2021/08/29 07:04:27;;;;;;;4.70;4.30;;;17.90;99.90;;;;;;5053502;28;20466;-61
2021/08/29 07:06:54;;;;;;;4.67;4.27;;;17.90;99.90;;;;;;5053199;28;20516;-60
2021/08/29 07:09:20;;;;;;;5.40;4.90;;;17.90;99.90;;;;;;5053257;28;20870;-61
2021/08/29 07:11:49;;;;;;;4.60;4.20;;;17.90;99.90;;;;;;5053418;28;20470;-61
2021/08/29 07:14:15;;;;;;;5.70;5.20;;;17.90;99.90;;;;;;5053042;28;20497;-60
2021/08/29 07:16:42;;;;;;;4.80;4.40;;;17.90;99.90;;;;;;5068462;28;20463;-60
2021/08/29 07:19:09;;;;;;;5.43;4.93;;;17.90;99.90;;;;;;5072699;28;20944;-61
2021/08/29 07:21:36;;;;;;;4.50;4.10;;;17.90;99.90;;;;;;5073131;28;20481;-62
2021/08/29 07:24:03;;;;;;;4.40;4.00;;;17.90;99.90;;;;;;5072644;28;20473;-62
2021/08/29 07:26:30;;;;;;;3.80;3.50;;;17.90;99.90;;;;;;5073281;28;20803;-62
2021/08/29 07:28:58;;;;;;;4.80;4.40;;;17.90;99.90;;;;;;5072413;28;20477;-61
2021/08/29 07:31:25;;;;;;;4.33;4.03;;;17.90;99.90;;;;;;5072943;28;20462;-61
2021/08/29 07:33:52;;;;;;;3.97;3.67;;;17.90;99.90;;;;;;5072980;28;20489;-63
2021/08/29 07:36:19;;;;;;;4.20;3.90;;;17.90;99.90;;;;;;5072396;28;20468;-61
2021/08/29 07:38:45;;;;;;;5.20;4.80;;;17.90;99.90;;;;;;5072749;28;20473;-62
2021/08/29 07:41:12;;;;;;;6.27;5.70;;;17.90;99.90;;;;;;5072308;28;20462;-62
2021/08/29 07:43:39;;;;;;;5.13;4.70;;;17.90;99.90;;;;;;5072836;28;20536;-62
2021/08/29 07:46:07;;;;;;;5.50;5.10;;;17.90;99.90;;;;;;5071322;28;20463;-63
2021/08/29 07:48:34;;;;;;;6.03;5.27;;;17.90;99.90;;;;;;5072555;28;20474;-63
2021/08/29 07:51:01;;;;;;;6.33;5.80;;;17.90;99.90;;;;;;5071001;28;20759;-63
2021/08/29 07:53:28;;;;;;;6.50;6.00;;;17.90;99.90;;;;;;5052548;28;20538;-63
2021/08/29 07:55:55;;;;;;;7.20;6.50;;;17.90;99.90;;;;;;5058938;28;20492;-63
2021/08/29 07:58:22;;;;;;;6.90;6.30;;;18.00;99.90;;;;;;5072065;28;20459;-63
2021/08/29 08:00:49;;;;;;;9.53;8.63;;;18.00;99.90;;;;;;5072715;28;20458;-63
2021/08/29 08:03:18;;;;;;;8.07;7.27;;;18.00;99.90;;;;;;5072037;28;20481;-63
2021/08/29 08:05:45;;;;;;;8.10;7.40;;;18.00;99.90;;;;;;5072531;28;20504;-62
2021/08/29 08:08:12;;;;;;;8.60;7.80;;;18.00;99.90;;;;;;5072028;28;20468;-61
2021/08/29 08:10:38;;;;;;;7.27;6.67;;;18.00;99.90;;;;;;5071490;28;20462;-62
2021/08/29 08:13:05;;;;;;;5.63;5.13;;;18.00;99.90;;;;;;5072049;28;20466;-62
2021/08/29 08:15:32;;;;;;;6.00;5.43;;;18.00;99.90;;;;;;5072552;28;20553;-62
2021/08/29 08:17:59;;;;;;;5.20;4.80;;;18.00;99.90;;;;;;5071317;28;20462;-62
2021/08/29 08:20:27;;;;;;;4.70;4.30;;;18.00;99.90;;;;;;5068341;28;20461;-62
2021/08/29 08:22:54;;;;;;;4.87;4.47;;;18.00;99.90;;;;;;5052607;28;20475;-62
2021/08/29 08:25:21;;;;;;;4.50;4.10;;;18.00;99.90;;;;;;5052115;28;20473;-62
2021/08/29 08:27:48;;;;;;;4.60;4.30;;;18.00;99.90;;;;;;5056997;28;20541;-61
2021/08/29 08:30:15;;;;;;;5.30;4.80;;;18.00;99.90;;;;;;5067669;28;20657;-63
2021/08/29 08:32:42;;;;;;;4.33;3.87;;;18.10;99.90;;;;;;5052285;28;20466;-62
2021/08/29 08:35:09;;;;;;;5.83;4.10;;;18.10;99.90;;;;;;5051746;28;20467;-63
2021/08/29 08:37:38;;;;;;;4.13;3.73;;;18.10;99.90;;;;;;5052214;28;20459;-62
2021/08/29 08:40:06;;;;;;;4.80;4.33;;;18.20;99.90;;;;;;5051748;28;20479;-62
2021/08/29 08:42:33;;;;;;;4.90;4.40;;;18.20;99.90;;;;;;5052180;28;20470;-62
2021/08/29 08:45:00;;;;;;;5.03;4.63;;;18.30;99.90;;;;;;5052374;28;20475;-62
2021/08/29 08:47:28;;;;;;;4.80;4.17;;;18.30;99.90;;;;;;5069105;28;20458;-62
2021/08/29 08:49:57;;;;;;;4.57;4.17;;;18.40;99.90;;;;;;5072116;28;20466;-63
2021/08/29 08:52:28;;;;;;;4.30;3.97;;;18.50;99.90;;;;;;5071601;28;20457;-62
2021/08/29 08:55:02;;;;;;;4.70;4.30;;;18.50;99.90;;;;;;5072191;28;20496;-61
2021/08/29 08:57:29;;;;;;;3.87;3.50;;;18.60;99.90;;;;;;5072616;28;20454;-60
2021/08/29 08:59:56;;;;;;;4.83;4.33;;;18.70;99.90;;;;;;5075931;28;20470;-61
2021/08/29 09:02:24;;;;;;;5.50;4.10;;;18.70;99.90;;;;;;5075263;28;20472;-61
2021/08/29 09:04:52;;;;;;;4.30;3.90;;;18.80;99.90;;;;;;5075764;28;20466;-60
2021/08/29 09:07:19;;;;;;;5.20;3.90;;;18.90;99.90;;;;;;5075284;28;20462;-60
2021/08/29 09:09:47;;;;;;;3.70;3.40;;;18.90;99.90;;;;;;5075536;28;20470;-60
2021/08/29 09:12:16;;;;;;;2.60;2.40;;;19.00;99.90;;;;;;5075199;28;20900;-60
2021/08/29 09:14:45;;;;;;;3.30;3.07;;;19.00;99.90;;;;;;5075669;28;20796;-60
2021/08/29 09:17:27;;;;;;;2.30;2.10;;;19.00;99.90;;;;;;5074930;28;20844;-60
2021/08/29 09:20:14;;;;;;;3.13;2.93;;;19.10;99.90;;;;;;5075410;28;20869;-60
2021/08/29 09:22:42;;;;;;;3.03;2.83;;;19.20;99.90;;;;;;5075762;28;20545;-61
2021/08/29 09:25:13;;;;;;;3.13;2.93;;;19.30;99.90;;;;;;5074969;28;20458;-60
2021/08/29 09:27:44;;;;;;;2.80;2.60;;;19.40;99.90;;;;;;5075387;28;20485;-61
2021/08/29 09:30:13;;;;;;;4.87;4.47;;;19.40;99.90;;;;;;5074673;28;20462;-61
2021/08/29 09:32:55;;;;;;;4.37;3.97;;;19.50;99.90;;;;;;5075204;28;20480;-61
2021/08/29 09:35:24;;;;;;;5.00;4.53;;;19.50;99.90;;;;;;5066936;28;20450;-60
2021/08/29 09:37:51;;;;;;;5.80;5.30;;;19.60;99.90;;;;;;5075203;28;20473;-60
2021/08/29 09:40:21;;;;;;;4.33;3.97;;;19.60;99.90;;;;;;5074674;28;20473;-61
2021/08/29 09:42:52;;;;;;;4.93;4.60;;;19.70;99.90;;;;;;5072215;28;20481;-61
2021/08/29 09:45:24;;;;;;;4.53;4.20;;;19.70;99.90;;;;;;5054623;28;20839;-62
2021/08/29 09:47:52;;;;;;;3.80;3.50;;;19.70;99.90;;;;;;5074948;28;20976;-61
2021/08/29 09:50:21;;;;;;;3.20;3.00;;;19.80;99.90;;;;;;5074323;28;20470;-61
2021/08/29 09:52:48;;;;;;;3.90;3.60;;;19.80;99.90;;;;;;5062686;28;20473;-61
2021/08/29 09:55:27;;;;;;;3.50;3.20;;;19.90;99.90;;;;;;5054383;28;20961;-61
2021/08/29 09:57:57;;;;;;;6.50;5.90;;;19.90;99.90;;;;;;5063271;28;20466;-60
2021/08/29 10:00:24;;;;;;;7.80;6.97;;;19.90;99.90;;;;;;5074609;28;20895;-60
2021/08/29 10:03:06;;;;;;;6.63;6.03;;;19.90;99.90;;;;;;5074745;28;20462;-61
2021/08/29 10:05:33;;;;;;;4.90;4.50;;;19.90;99.90;;;;;;5074412;28;20549;-60
2021/08/29 10:08:04;;;;;;;4.23;3.93;;;19.90;99.90;;;;;;5072963;28;20545;-60
2021/08/29 10:10:33;;;;;;;3.50;3.10;;;20.00;99.90;;;;;;5053122;28;20459;-60
2021/08/29 10:13:01;;;;;;;3.63;3.33;;;20.00;99.90;;;;;;5054658;28;20854;-61
2021/08/29 10:15:28;;;;;;;3.90;3.60;;;20.00;99.90;;;;;;5071670;28;20494;-61
2021/08/29 10:18:00;;;;;;;4.27;3.93;;;20.10;99.90;;;;;;5074391;28;21093;-60
2021/08/29 10:20:27;;;;;;;3.43;3.13;;;20.20;99.90;;;;;;5066916;28;20479;-61
2021/08/29 10:22:54;;;;;;;3.47;3.17;;;20.30;99.90;;;;;;5054271;28;20786;-60
2021/08/29 10:25:21;;;;;;;3.03;2.73;;;20.40;99.90;;;;;;5053910;28;20816;-60
2021/08/29 10:27:51;;;;;;;3.20;2.90;;;20.50;99.90;;;;;;5054523;28;20478;-60
2021/08/29 10:30:21;;;;;;;2.40;2.20;;;20.50;99.90;;;;;;5053641;28;20554;-61
2021/08/29 10:32:49;;;;;;;1.80;1.70;;;20.50;99.90;;;;;;5068301;28;20477;-61
2021/08/29 10:35:17;;;;;;;2.13;1.93;;;20.50;99.90;;;;;;5073632;28;20477;-61
2021/08/29 10:37:46;;;;;;;1.80;1.70;;;20.50;99.90;;;;;;5073896;28;20472;-61
2021/08/29 10:40:15;;;;;;;1.63;1.50;;;20.50;99.90;;;;;;5073563;28;20470;-61
2021/08/29 10:42:43;;;;;;;2.50;2.30;;;20.50;99.90;;;;;;5073927;28;20957;-60
2021/08/29 10:45:11;;;;;;;3.17;2.60;;;20.60;99.90;;;;;;5073577;28;20471;-60
2021/08/29 10:47:41;;;;;;;2.43;2.23;;;20.70;99.90;;;;;;5073142;28;20577;-60
2021/08/29 10:50:09;;;;;;;1.97;1.77;;;20.70;99.90;;;;;;5073278;28;20466;-61
2021/08/29 10:52:38;;;;;;;3.00;2.80;;;20.80;99.90;;;;;;5073026;28;20469;-60
2021/08/29 10:55:08;;;;;;;2.03;1.60;;;20.90;99.90;;;;;;5073705;28;20477;-60
2021/08/29 10:57:36;;;;;;;1.60;1.50;;;21.00;99.90;;;;;;5073083;28;20477;-60
2021/08/29 11:00:09;;;;;;;3.40;1.63;;;21.00;99.90;;;;;;5057883;28;20467;-60
2021/08/29 11:02:37;;;;;;;1.93;1.20;;;21.10;99.90;;;;;;5053183;28;20539;-60
2021/08/29 11:05:07;;;;;;;2.10;1.90;;;21.10;99.90;;;;;;5053795;28;20467;-60
2021/08/29 11:07:43;;;;;;;1.73;1.63;;;21.10;99.90;;;;;;5053086;28;20522;-60
2021/08/29 11:10:11;;;;;;;5.27;2.50;;;21.20;99.90;;;;;;5053313;28;20616;-60
2021/08/29 11:12:39;;;;;;;2.10;1.90;;;21.20;99.90;;;;;;5052953;28;20455;-60
2021/08/29 11:15:08;;;;;;;1.50;1.40;;;21.20;99.90;;;;;;5057045;28;20481;-60
2021/08/29 11:17:36;;;;;;;1.70;1.57;;;21.20;99.90;;;;;;5072913;28;20458;-60
2021/08/29 11:20:16;;;;;;;3.33;2.10;;;21.20;99.90;;;;;;5073057;28;20466;-60
2021/08/29 11:22:45;;;;;;;2.40;2.20;;;21.10;99.90;;;;;;5072819;28;20491;-60
2021/08/29 11:25:20;;;;;;;1.50;1.40;;;21.10;99.90;;;;;;5072694;28;20477;-61
2021/08/29 11:28:08;;;;;;;1.23;1.13;;;21.00;99.90;;;;;;5072795;28;20454;-60
2021/08/29 11:30:43;;;;;;;1.93;1.80;;;21.10;99.90;;;;;;5067307;28;20476;-60
2021/08/29 11:33:12;;;;;;;4.80;4.40;;;21.10;99.90;;;;;;5072931;28;20501;-60
2021/08/29 11:35:46;;;;;;;8.13;6.50;;;21.10;99.90;;;;;;5055712;28;20485;-60
2021/08/29 11:38:16;;;;;;;7.73;7.03;;;21.10;99.90;;;;;;5052897;28;20477;-60
2021/08/29 11:41:02;;;;;;;5.77;5.27;;;21.10;99.90;;;;;;5060161;28;22729;-60
2021/08/29 11:43:35;;;;;;;3.93;3.70;;;21.10;99.90;;;;;;5072333;28;20462;-60
2021/08/29 11:46:10;;;;;;;2.90;2.63;;;21.10;99.90;;;;;;5072580;28;20466;-60
2021/08/29 11:48:39;;;;;;;2.30;2.10;;;21.10;99.90;;;;;;5072142;28;20523;-61
2021/08/29 11:51:07;;;;;;;2.00;1.80;;;21.10;99.90;;;;;;5072573;28;20469;-60
2021/08/29 11:53:44;;;;;;;2.03;1.93;;;21.10;99.90;;;;;;5072123;28;20985;-60
2021/08/29 11:56:11;;;;;;;2.30;2.10;;;21.10;99.90;;;;;;5072598;28;20466;-61
2021/08/29 11:58:38;;;;;;;2.23;2.10;;;21.10;99.90;;;;;;5072131;28;20545;-60
2021/08/29 12:01:06;;;;;;;2.60;2.27;;;21.10;99.90;;;;;;5072604;28;20507;-61
2021/08/29 12:03:34;;;;;;;1.90;1.80;;;21.10;99.90;;;;;;5072089;28;20462;-61
2021/08/29 12:06:07;;;;;;;6.47;5.90;;;21.10;99.90;;;;;;5072697;28;20541;-60
2021/08/29 12:08:45;;;;;;;7.33;6.63;;;21.20;99.90;;;;;;5071634;28;20498;-60
2021/08/29 12:11:12;;;;;;;5.33;4.93;;;21.20;99.90;;;;;;5062674;28;20470;-61
2021/08/29 12:13:39;;;;;;;2.60;2.40;;;21.20;99.90;;;;;;5072036;28;20831;-61
2021/08/29 12:16:07;;;;;;;3.90;3.60;;;21.20;99.90;;;;;;5072678;28;20470;-61
2021/08/29 12:18:37;;;;;;;3.77;3.47;;;21.30;99.90;;;;;;5071844;28;20470;-61
2021/08/29 12:21:06;;;;;;;3.07;2.80;;;21.30;99.90;;;;;;5072250;28;20473;-61
2021/08/29 12:23:34;;;;;;;2.80;2.60;;;21.40;99.90;;;;;;5071521;28;20475;-61
2021/08/29 12:26:05;;;;;;;3.30;3.03;;;21.40;99.90;;;;;;5059451;28;20464;-62
2021/08/29 12:28:34;;;;;;;2.00;1.90;;;21.40;99.90;;;;;;5051953;28;20471;-61
2021/08/29 12:31:02;;;;;;;1.90;1.80;;;21.50;99.90;;;;;;5052368;28;20555;-61
2021/08/29 12:33:30;;;;;;;1.53;1.43;;;21.50;99.90;;;;;;5060437;28;20462;-61
2021/08/29 12:35:58;;;;;;;1.87;1.77;;;21.50;99.90;;;;;;5076095;28;20468;-62
2021/08/29 12:38:28;;;;;;;6.17;5.67;;;21.50;99.90;;;;;;5076358;28;20813;-61
2021/08/29 12:40:57;;;;;;;8.90;8.00;;;21.50;99.90;;;;;;5076106;28;20450;-59
2021/08/29 12:43:28;;;;;;;13.30;12.00;;;21.50;99.90;;;;;;5076062;28;20462;-61
2021/08/29 12:45:56;;;;;;;5.60;5.10;;;21.40;99.90;;;;;;5074844;28;20533;-61
2021/08/29 12:48:23;;;;;;;5.40;4.90;;;21.40;99.90;;;;;;5072776;28;20485;-61
2021/08/29 12:50:54;;;;;;;4.10;3.33;;;21.40;99.90;;;;;;5075378;28;20811;-61
2021/08/29 12:53:24;;;;;;;3.13;2.83;;;21.20;99.90;;;;;;5062689;28;20465;-61
2021/08/29 12:55:52;;;;;;;4.37;2.70;;;21.10;99.90;;;;;;5055427;28;20785;-61